Time;durP1;ratioP1;P1;durP2;ratioP2;P2;SDS_P1;SDS_P2;PMS_P1;PMS_P2;Temp;Humidity;BMP_temperature;BMP_pressure;BME280_temperature;BME280_humidity;BME280_pressure;Samples;Min_cycle;Max_cycle;Signal;HPM_P1;HPM_P2
2021/05/06 00:09:46;;;;;;;2.53;1.00;;;11.00;68.80;;;;;;2588814;52;20932;-67
2021/05/06 01:05:48;;;;;;;2.70;0.88;;;11.10;68.20;;;;;;2344100;54;21841;-66
2021/05/06 01:08:27;;;;;;;1.87;0.80;;;11.00;68.20;;;;;;2344378;53;20940;-66
2021/05/06 01:11:20;;;;;;;2.00;0.65;;;11.00;68.30;;;;;;2342527;54;21465;-67
2021/05/06 01:13:48;;;;;;;2.65;0.75;;;11.00;69.20;;;;;;2342678;55;21430;-68
2021/05/06 01:16:14;;;;;;;2.12;1.02;;;11.00;68.50;;;;;;2342543;54;21397;-65
2021/05/06 01:18:41;;;;;;;4.32;1.00;;;11.00;68.50;;;;;;2342687;54;20925;-68
2021/05/06 01:21:07;;;;;;;2.95;0.95;;;11.00;68.50;;;;;;2587626;53;20949;-67
2021/05/06 01:23:34;;;;;;;3.60;1.20;;;11.00;68.30;;;;;;2559245;52;20976;-67
2021/05/06 01:26:14;;;;;;;2.65;1.00;;;11.00;68.20;;;;;;2563319;52;20937;-66
2021/05/06 01:28:42;;;;;;;3.87;1.15;;;11.00;67.90;;;;;;2325405;54;20953;-67
2021/05/06 01:31:16;;;;;;;3.08;1.10;;;11.00;68.00;;;;;;2334819;53;20953;-66
2021/05/06 01:34:07;;;;;;;3.78;1.00;;;10.90;67.90;;;;;;2327936;54;22347;-66
2021/05/06 01:36:38;;;;;;;3.35;1.12;;;10.90;67.40;;;;;;2344160;53;20995;-66
2021/05/06 01:39:39;;;;;;;3.33;0.98;;;10.90;68.00;;;;;;2344003;53;20930;-67
2021/05/06 01:42:12;;;;;;;1.58;0.70;;;10.90;68.00;;;;;;2586440;52;20942;-66
2021/05/06 01:47:47;;;;;;;2.17;0.80;;;10.80;67.90;;;;;;2342909;53;21008;-67
2021/05/06 01:59:49;;;;;;;3.53;0.93;;;10.80;68.10;;;;;;2340828;53;20932;-68
2021/05/06 02:02:16;;;;;;;2.33;1.00;;;10.80;68.20;;;;;;2583582;53;21023;-65
2021/05/06 02:04:42;;;;;;;4.03;1.40;;;10.80;68.20;;;;;;2342468;53;21009;-67
2021/05/06 02:07:09;;;;;;;2.28;0.90;;;10.70;68.20;;;;;;2348384;53;20910;-65
2021/05/06 02:09:36;;;;;;;2.53;1.40;;;10.70;68.20;;;;;;2365501;53;20934;-66
2021/05/06 02:12:02;;;;;;;3.83;1.10;;;10.70;68.30;;;;;;2513597;53;20959;-66
2021/05/06 02:14:29;;;;;;;4.00;1.30;;;10.70;68.40;;;;;;2341806;53;20977;-66
2021/05/06 02:16:55;;;;;;;2.78;0.98;;;10.70;68.50;;;;;;2402616;53;21496;-66
2021/05/06 02:19:32;;;;;;;2.65;1.00;;;10.80;68.70;;;;;;2342280;53;21833;-66
2021/05/06 02:21:58;;;;;;;3.33;1.17;;;10.80;68.70;;;;;;2588208;53;21008;-68
2021/05/06 02:24:24;;;;;;;3.08;1.00;;;10.80;68.70;;;;;;2342043;53;21414;-67
2021/05/06 02:26:53;;;;;;;3.35;1.05;;;10.80;68.60;;;;;;2581682;52;21033;-68
2021/05/06 02:29:19;;;;;;;2.22;1.02;;;10.80;69.40;;;;;;2541381;53;20951;-67
2021/05/06 02:31:46;;;;;;;2.50;1.00;;;10.90;68.70;;;;;;2587847;53;21676;-66
2021/05/06 02:34:13;;;;;;;3.15;1.15;;;10.90;68.80;;;;;;2345507;53;20949;-67
2021/05/06 02:36:41;;;;;;;4.05;1.30;;;10.90;68.80;;;;;;2340697;53;21048;-68
2021/05/06 02:39:08;;;;;;;3.20;1.33;;;10.90;68.80;;;;;;2341610;54;20952;-67
2021/05/06 02:41:34;;;;;;;3.10;1.45;;;11.00;68.90;;;;;;2325618;54;20921;-68
2021/05/06 02:44:00;;;;;;;3.60;1.40;;;11.00;68.60;;;;;;2334302;53;20933;-67
2021/05/06 02:46:28;;;;;;;4.60;1.27;;;11.00;68.60;;;;;;2342301;53;20932;-67
2021/05/06 02:48:54;;;;;;;4.68;1.17;;;11.00;68.50;;;;;;2341118;53;20984;-66
2021/05/06 02:51:28;;;;;;;3.45;1.25;;;11.00;68.60;;;;;;2583679;53;20988;-66
2021/05/06 02:53:55;;;;;;;4.00;1.10;;;11.10;68.40;;;;;;2342241;53;21021;-66
2021/05/06 02:56:33;;;;;;;2.50;1.00;;;11.10;68.60;;;;;;2587685;53;20956;-68
2021/05/06 02:59:16;;;;;;;4.12;1.20;;;11.10;68.60;;;;;;2342241;53;21781;-68
2021/05/06 03:04:28;;;;;;;3.60;1.10;;;11.20;68.40;;;;;;2328520;54;21047;-67
2021/05/06 03:07:01;;;;;;;4.37;1.10;;;11.20;68.40;;;;;;2325803;54;21071;-68
2021/05/06 03:09:54;;;;;;;5.12;1.52;;;11.30;68.50;;;;;;2332507;53;21494;-67
2021/05/06 03:12:42;;;;;;;5.00;1.70;;;11.30;68.60;;;;;;2341575;54;21012;-68
2021/05/06 03:23:23;;;;;;;5.20;1.73;;;11.30;67.90;;;;;;2362584;53;20930;-67
2021/05/06 03:25:49;;;;;;;4.45;1.42;;;11.40;67.70;;;;;;2369919;53;21402;-67
2021/05/06 03:28:23;;;;;;;2.80;1.20;;;11.40;67.90;;;;;;2371208;53;21029;-67
2021/05/06 03:35:17;;;;;;;5.87;1.35;;;11.40;67.70;;;;;;2594227;52;21010;-68
2021/05/06 03:43:34;;;;;;;8.60;1.40;;;11.50;67.70;;;;;;2373208;53;20965;-67
2021/05/06 04:26:46;;;;;;;3.67;1.42;;;11.80;65.50;;;;;;2342025;53;21013;-69
2021/05/06 04:35:37;;;;;;;6.35;1.70;;;11.80;65.00;;;;;;2340321;53;21573;-67
2021/05/06 04:38:05;;;;;;;3.85;1.87;;;11.90;65.20;;;;;;2342447;53;21524;-69
2021/05/06 04:41:05;;;;;;;4.05;1.50;;;11.80;65.00;;;;;;2590308;53;21016;-67
2021/05/06 04:55:12;;;;;;;2.90;1.00;;;11.90;65.70;;;;;;2342910;53;20952;-67
2021/05/06 04:58:00;;;;;;;3.78;1.10;;;11.80;65.70;;;;;;2343620;53;20957;-68
2021/05/06 05:03:35;;;;;;;3.05;1.20;;;11.80;66.20;;;;;;2344085;53;20940;-67
2021/05/06 05:06:01;;;;;;;2.58;1.20;;;11.80;66.40;;;;;;2343275;53;21004;-66
2021/05/06 05:08:33;;;;;;;3.10;1.10;;;11.70;66.40;;;;;;2344767;53;20960;-68
2021/05/06 05:11:22;;;;;;;2.55;1.08;;;11.80;66.80;;;;;;2330181;54;21008;-66
2021/05/06 05:13:59;;;;;;;5.12;1.70;;;11.80;67.00;;;;;;2343810;53;20933;-67
2021/05/06 05:19:35;;;;;;;3.85;1.45;;;11.80;67.90;;;;;;2518280;53;20968;-67
2021/05/06 05:28:16;;;;;;;4.22;1.87;;;11.70;67.40;;;;;;2369958;53;20981;-68
2021/05/06 05:30:42;;;;;;;6.07;2.30;;;11.70;67.70;;;;;;2359837;53;20959;-67
2021/05/06 05:33:18;;;;;;;7.28;3.47;;;11.80;67.90;;;;;;2360831;53;21006;-67
2021/05/06 05:38:37;;;;;;;5.95;3.17;;;11.80;68.30;;;;;;2373203;53;21415;-66
2021/05/06 05:45:40;;;;;;;4.97;2.05;;;11.80;68.70;;;;;;2556444;52;20954;-67
2021/05/06 05:57:27;;;;;;;5.82;3.22;;;11.90;69.00;;;;;;2356523;53;21447;-66
2021/05/06 05:59:54;;;;;;;5.65;3.12;;;12.10;69.00;;;;;;2340716;54;20958;-66
2021/05/06 06:02:20;;;;;;;6.87;3.00;;;12.10;70.00;;;;;;2622124;52;20911;-67
2021/05/06 06:04:47;;;;;;;4.50;2.20;;;12.10;69.20;;;;;;2589338;52;21508;-68
2021/05/06 06:07:13;;;;;;;5.10;2.10;;;12.10;69.00;;;;;;2622701;52;20926;-66
2021/05/06 06:09:52;;;;;;;4.15;1.87;;;12.10;68.90;;;;;;2368801;53;21522;-66
2021/05/06 06:12:18;;;;;;;4.55;1.60;;;12.10;68.60;;;;;;2369353;53;20978;-67
2021/05/06 06:14:56;;;;;;;3.15;1.85;;;12.10;69.10;;;;;;2622315;52;20989;-67
2021/05/06 06:17:22;;;;;;;3.80;1.75;;;12.20;69.40;;;;;;2508038;52;21015;-66
2021/05/06 06:19:50;;;;;;;5.55;2.00;;;12.20;69.50;;;;;;2363302;53;21594;-67
2021/05/06 06:22:21;;;;;;;6.45;2.30;;;12.20;69.90;;;;;;2369116;53;21422;-67
2021/05/06 06:24:48;;;;;;;4.57;2.03;;;12.30;70.10;;;;;;2368917;53;20989;-66
2021/05/06 06:27:15;;;;;;;4.45;1.90;;;12.40;70.30;;;;;;2604617;52;20979;-68
2021/05/06 06:30:01;;;;;;;5.35;2.80;;;12.40;70.40;;;;;;2349717;54;21508;-68
2021/05/06 06:32:27;;;;;;;5.80;2.35;;;12.50;69.80;;;;;;2349132;54;20953;-69
2021/05/06 06:34:54;;;;;;;4.25;2.10;;;12.50;70.50;;;;;;2351092;53;20948;-67
2021/05/06 06:37:21;;;;;;;6.15;2.20;;;12.60;70.40;;;;;;2367710;53;20926;-66
2021/05/06 06:39:48;;;;;;;5.25;2.10;;;12.60;70.40;;;;;;2368803;53;21379;-68
2021/05/06 06:42:14;;;;;;;4.57;2.20;;;12.70;70.70;;;;;;2369472;53;21396;-68
2021/05/06 06:44:41;;;;;;;3.97;1.98;;;12.80;70.90;;;;;;2359807;53;20990;-68
2021/05/06 06:47:07;;;;;;;4.97;2.40;;;12.90;70.90;;;;;;2357188;53;21498;-68
2021/05/06 06:49:37;;;;;;;4.37;2.20;;;12.90;70.90;;;;;;2344915;53;20949;-67
2021/05/06 06:52:05;;;;;;;6.12;2.00;;;13.00;70.80;;;;;;2358994;53;20943;-68
2021/05/06 06:54:31;;;;;;;4.82;2.35;;;13.10;71.60;;;;;;2369317;53;21804;-67
2021/05/06 06:57:25;;;;;;;5.55;2.50;;;13.10;70.80;;;;;;2369022;53;20930;-67
2021/05/06 06:59:52;;;;;;;4.50;2.20;;;13.20;69.70;;;;;;2368346;53;20962;-67
2021/05/06 07:02:22;;;;;;;4.03;1.98;;;13.30;70.60;;;;;;2608072;52;21002;-67
2021/05/06 07:04:48;;;;;;;4.03;1.92;;;13.30;70.20;;;;;;2347393;53;22404;-68
2021/05/06 07:07:17;;;;;;;4.00;1.77;;;13.40;70.40;;;;;;2565385;52;21002;-67
2021/05/06 07:09:44;;;;;;;6.90;2.58;;;13.40;70.40;;;;;;2328324;53;20917;-67
2021/05/06 07:12:11;;;;;;;4.95;2.65;;;13.40;71.00;;;;;;2309267;53;20982;-66
2021/05/06 07:14:38;;;;;;;5.80;3.45;;;13.50;70.40;;;;;;2317461;53;21018;-66
2021/05/06 07:17:10;;;;;;;5.80;3.22;;;13.60;70.50;;;;;;2459234;52;21940;-68
2021/05/06 07:19:36;;;;;;;5.45;3.30;;;13.50;70.30;;;;;;2299923;53;21011;-67
2021/05/06 07:22:03;;;;;;;5.10;2.95;;;13.60;70.30;;;;;;2281199;53;20928;-68
2021/05/06 07:24:57;;;;;;;3.47;2.20;;;13.60;70.10;;;;;;2280298;54;21104;-68
2021/05/06 07:27:24;;;;;;;4.93;2.20;;;13.60;69.00;;;;;;2274939;54;20967;-67
2021/05/06 07:29:52;;;;;;;5.40;2.60;;;13.70;69.80;;;;;;2278062;54;21547;-67
2021/05/06 07:32:20;;;;;;;4.35;1.95;;;13.70;69.70;;;;;;2259039;53;22170;-67
2021/05/06 07:34:47;;;;;;;4.12;2.00;;;13.70;69.50;;;;;;2281783;53;21025;-67
2021/05/06 07:37:14;;;;;;;4.87;2.33;;;13.70;69.50;;;;;;2295933;53;20938;-68
2021/05/06 07:39:42;;;;;;;3.92;2.20;;;13.70;69.50;;;;;;2309592;53;21339;-68
2021/05/06 07:42:15;;;;;;;5.12;2.33;;;13.70;69.40;;;;;;2319294;53;20946;-68
2021/05/06 07:44:42;;;;;;;4.20;2.12;;;13.70;69.20;;;;;;2303962;53;20943;-65
2021/05/06 07:47:10;;;;;;;5.62;2.62;;;13.70;69.60;;;;;;2345329;52;20960;-68
2021/05/06 07:49:38;;;;;;;5.87;2.70;;;13.70;69.60;;;;;;2320898;53;1345494;-67
2021/05/06 07:52:13;;;;;;;5.55;2.50;;;13.70;69.50;;;;;;2320962;53;21031;-67
2021/05/06 07:54:45;;;;;;;5.40;2.47;;;13.70;69.30;;;;;;2326146;53;21812;-67
2021/05/06 07:57:12;;;;;;;5.25;2.60;;;13.70;69.30;;;;;;2344926;53;20926;-68
2021/05/06 07:59:38;;;;;;;6.40;3.17;;;13.70;69.20;;;;;;2355358;53;21013;-67
2021/05/06 08:02:05;;;;;;;5.55;2.80;;;13.70;68.90;;;;;;2367359;53;20982;-67
2021/05/06 08:04:32;;;;;;;6.45;2.87;;;13.60;68.60;;;;;;2371585;53;21077;-67
2021/05/06 08:06:58;;;;;;;7.60;2.90;;;13.60;68.50;;;;;;2371665;53;20930;-66
2021/05/06 08:09:25;;;;;;;8.50;2.95;;;13.60;68.50;;;;;;2372054;53;20990;-67
2021/05/06 08:11:58;;;;;;;4.72;2.30;;;13.50;68.30;;;;;;2382682;53;20943;-66
2021/05/06 08:14:25;;;;;;;7.07;2.28;;;13.50;68.10;;;;;;2352323;53;21886;-66
2021/05/06 08:16:51;;;;;;;6.57;2.35;;;13.40;67.60;;;;;;2364659;53;20946;-67
2021/05/06 08:19:17;;;;;;;5.40;2.30;;;13.30;67.20;;;;;;2362143;53;20947;-66
2021/05/06 08:21:44;;;;;;;4.82;2.00;;;13.20;67.10;;;;;;2612056;52;21291;-67
2021/05/06 08:24:11;;;;;;;4.32;1.67;;;13.10;67.10;;;;;;2357486;53;20915;-67
2021/05/06 08:26:37;;;;;;;5.03;1.80;;;13.10;67.20;;;;;;2366720;53;21438;-66
2021/05/06 08:29:15;;;;;;;7.15;2.25;;;13.00;67.20;;;;;;2371450;53;20942;-67
2021/05/06 08:31:41;;;;;;;6.32;2.20;;;13.00;66.90;;;;;;2370278;53;20998;-66
2021/05/06 08:34:08;;;;;;;4.87;2.40;;;12.90;67.50;;;;;;2623904;52;21089;-66
2021/05/06 08:36:34;;;;;;;6.80;2.58;;;12.90;67.60;;;;;;2371781;53;21458;-66
2021/05/06 08:39:01;;;;;;;5.97;2.33;;;12.80;67.80;;;;;;2353054;53;20920;-66
2021/05/06 08:41:27;;;;;;;6.18;2.50;;;12.80;68.00;;;;;;2370318;53;20986;-66
2021/05/06 08:43:57;;;;;;;8.27;3.00;;;12.70;68.10;;;;;;2361808;53;21851;-66
2021/05/06 08:46:31;;;;;;;8.80;2.78;;;12.70;68.30;;;;;;2363484;53;20959;-66
2021/05/06 08:49:03;;;;;;;6.78;3.35;;;12.70;68.30;;;;;;2371648;53;20973;-66
2021/05/06 08:51:30;;;;;;;8.05;2.95;;;12.70;68.50;;;;;;2371498;53;21324;-66
2021/05/06 08:53:57;;;;;;;7.53;3.20;;;12.70;68.70;;;;;;2624445;52;20990;-66
2021/05/06 08:56:23;;;;;;;7.43;3.45;;;12.60;68.70;;;;;;2366815;53;20980;-67
2021/05/06 08:58:49;;;;;;;8.82;4.00;;;12.70;68.90;;;;;;2355884;53;21026;-65
2021/05/06 09:01:17;;;;;;;6.70;3.15;;;12.70;68.90;;;;;;2374277;53;20942;-66
2021/05/06 09:03:43;;;;;;;5.97;3.08;;;12.60;68.90;;;;;;2352641;53;21009;-67
2021/05/06 09:06:19;;;;;;;7.22;2.75;;;12.60;69.00;;;;;;2339140;53;21006;-66
2021/05/06 09:08:49;;;;;;;6.65;2.92;;;12.60;68.90;;;;;;2366851;53;20926;-66
2021/05/06 09:11:15;;;;;;;4.30;2.08;;;12.70;69.20;;;;;;2623787;52;21831;-66
2021/05/06 09:13:41;;;;;;;3.67;1.80;;;12.70;69.20;;;;;;2608594;52;21012;-65
2021/05/06 09:16:07;;;;;;;4.18;1.62;;;12.70;69.00;;;;;;2354262;53;20926;-66
2021/05/06 09:18:55;;;;;;;5.45;1.75;;;12.60;69.00;;;;;;2370810;53;20955;-66
2021/05/06 09:21:31;;;;;;;5.70;1.80;;;12.70;68.90;;;;;;2356389;53;21009;-66
2021/05/06 09:24:04;;;;;;;4.43;1.60;;;12.60;68.50;;;;;;2352039;53;21071;-66
2021/05/06 09:26:31;;;;;;;4.68;1.80;;;12.60;68.70;;;;;;2360169;53;22373;-66
2021/05/06 09:29:01;;;;;;;3.55;1.48;;;12.60;69.10;;;;;;2344494;54;21912;-67
2021/05/06 09:31:28;;;;;;;4.22;2.10;;;12.60;69.40;;;;;;2372465;53;21157;-66
2021/05/06 09:33:54;;;;;;;3.60;1.75;;;12.60;69.50;;;;;;2334295;53;20899;-65
2021/05/06 09:36:22;;;;;;;4.20;1.87;;;12.60;69.50;;;;;;2596017;52;21009;-66
2021/05/06 09:38:53;;;;;;;4.68;2.20;;;12.60;69.40;;;;;;2619231;52;21553;-68
2021/05/06 09:41:27;;;;;;;5.82;2.40;;;12.70;69.60;;;;;;2484587;53;21018;-65
2021/05/06 09:43:53;;;;;;;4.18;1.75;;;12.70;69.50;;;;;;2623628;52;21459;-67
2021/05/06 09:46:42;;;;;;;4.37;1.65;;;12.70;69.70;;;;;;2371179;53;21815;-67
2021/05/06 09:49:10;;;;;;;5.68;1.92;;;12.70;69.70;;;;;;2624041;52;20934;-66
2021/05/06 09:51:57;;;;;;;6.22;2.70;;;12.70;70.00;;;;;;2624133;52;20934;-68
2021/05/06 09:54:44;;;;;;;4.60;1.75;;;12.80;69.90;;;;;;2374827;53;20934;-67
2021/05/06 09:57:10;;;;;;;4.05;1.58;;;12.80;69.80;;;;;;2599295;52;20956;-66
2021/05/06 09:59:38;;;;;;;5.93;1.67;;;12.80;70.10;;;;;;2368723;53;20922;-66
2021/05/06 10:02:13;;;;;;;2.50;1.20;;;12.80;70.20;;;;;;2358636;53;20945;-67
2021/05/06 10:04:41;;;;;;;3.35;1.10;;;12.90;70.10;;;;;;2336413;53;21551;-65
2021/05/06 10:07:09;;;;;;;2.65;1.05;;;12.90;70.20;;;;;;2386716;53;20974;-66
2021/05/06 10:10:04;;;;;;;2.58;1.25;;;12.90;70.10;;;;;;2372088;53;21001;-68
2021/05/06 10:12:34;;;;;;;3.15;1.30;;;12.90;69.50;;;;;;2359381;53;20936;-65
2021/05/06 10:15:06;;;;;;;3.05;1.30;;;13.00;70.10;;;;;;2330528;54;21590;-66
2021/05/06 10:17:32;;;;;;;2.40;1.12;;;13.00;70.30;;;;;;2345889;53;21410;-66
2021/05/06 10:19:59;;;;;;;2.70;1.10;;;13.00;70.50;;;;;;2356666;53;21011;-67
2021/05/06 10:22:27;;;;;;;2.83;1.10;;;13.10;70.50;;;;;;2353153;53;20976;-69
2021/05/06 10:24:55;;;;;;;3.40;1.10;;;13.10;70.40;;;;;;2352753;53;21887;-67
2021/05/06 10:27:25;;;;;;;2.10;0.90;;;13.10;70.20;;;;;;2351767;53;21044;-67
2021/05/06 10:29:56;;;;;;;2.37;0.68;;;13.10;70.10;;;;;;2363081;53;21681;-67
2021/05/06 10:32:26;;;;;;;2.25;0.80;;;13.10;70.10;;;;;;2365001;53;20882;-66
2021/05/06 10:34:55;;;;;;;1.87;0.88;;;13.20;70.00;;;;;;2371530;53;20921;-67
2021/05/06 10:37:29;;;;;;;2.42;0.90;;;13.20;70.10;;;;;;2341053;54;21042;-66
2021/05/06 10:39:57;;;;;;;3.25;0.85;;;13.20;69.60;;;;;;2365016;53;21425;-66
2021/05/06 10:42:31;;;;;;;1.98;0.77;;;13.20;70.20;;;;;;2596230;52;21422;-66
2021/05/06 10:45:03;;;;;;;2.20;0.82;;;13.20;70.30;;;;;;2588652;53;20955;-66
2021/05/06 10:48:47;;;;;;;1.73;0.80;;;13.30;70.40;;;;;;2335007;54;20942;-67
2021/05/06 10:51:41;;;;;;;1.80;0.73;;;13.30;69.50;;;;;;2361743;53;21308;-66
2021/05/06 11:01:08;;;;;;;3.03;1.20;;;13.40;70.10;;;;;;2367726;53;20918;-67
2021/05/06 11:03:34;;;;;;;1.98;1.00;;;13.60;69.50;;;;;;2375785;53;20983;-69
2021/05/06 11:06:01;;;;;;;2.15;1.05;;;13.60;70.50;;;;;;2549533;53;20942;-65
2021/05/06 11:08:36;;;;;;;3.55;1.80;;;13.60;70.60;;;;;;2364691;53;20989;-66
2021/05/06 11:11:22;;;;;;;9.75;4.45;;;13.60;70.00;;;;;;2590948;52;21013;-68
2021/05/06 11:14:09;;;;;;;12.37;5.75;;;13.60;69.80;;;;;;2371400;53;20948;-66
2021/05/06 11:16:38;;;;;;;6.22;2.87;;;13.60;69.30;;;;;;2359663;53;21030;-66
2021/05/06 11:19:05;;;;;;;5.47;2.72;;;13.60;69.50;;;;;;2372778;53;21006;-66
2021/05/06 11:21:36;;;;;;;6.65;2.08;;;13.50;69.20;;;;;;2368797;53;21026;-66
2021/05/06 11:24:49;;;;;;;6.47;1.70;;;13.50;68.90;;;;;;2341173;54;21013;-69
2021/05/06 11:27:21;;;;;;;4.45;2.10;;;13.40;68.40;;;;;;2356396;53;20987;-67
2021/05/06 11:29:48;;;;;;;4.37;1.50;;;13.40;68.70;;;;;;2360241;53;20931;-68
2021/05/06 11:32:24;;;;;;;5.00;1.60;;;13.30;68.70;;;;;;2345957;54;21006;-67
2021/05/06 11:34:52;;;;;;;4.15;1.60;;;13.20;68.20;;;;;;2358080;53;20922;-67
2021/05/06 11:37:26;;;;;;;3.33;1.35;;;13.10;68.10;;;;;;2363066;53;21779;-66
2021/05/06 11:40:05;;;;;;;7.30;1.60;;;13.00;68.20;;;;;;2361402;53;20962;-68
2021/05/06 11:42:37;;;;;;;3.83;1.30;;;12.90;68.40;;;;;;2345683;54;20961;-68
2021/05/06 11:45:09;;;;;;;3.15;1.42;;;12.80;68.40;;;;;;2625423;52;21675;-67
2021/05/06 11:47:35;;;;;;;4.00;1.30;;;12.70;68.50;;;;;;2367919;53;20985;-67
2021/05/06 11:51:53;;;;;;;4.93;1.70;;;12.70;69.00;;;;;;2588739;52;21567;-67
2021/05/06 11:54:22;;;;;;;2.72;1.37;;;12.60;68.60;;;;;;2368172;53;21477;-66
2021/05/06 11:57:00;;;;;;;3.35;1.45;;;12.50;69.20;;;;;;2357273;53;20929;-66
2021/05/06 11:59:29;;;;;;;2.95;1.50;;;12.50;69.10;;;;;;2624613;52;21017;-66
2021/05/06 12:01:57;;;;;;;4.12;1.27;;;12.40;69.40;;;;;;2372112;53;20934;-67
2021/05/06 12:04:31;;;;;;;3.85;1.35;;;12.30;69.60;;;;;;2372239;53;20938;-70
2021/05/06 12:06:58;;;;;;;3.25;1.25;;;12.20;69.80;;;;;;2372601;53;20994;-67
2021/05/06 12:09:29;;;;;;;5.20;1.48;;;12.20;70.10;;;;;;2352224;54;20913;-67
2021/05/06 12:11:56;;;;;;;5.53;1.75;;;12.20;70.10;;;;;;2372023;53;20953;-68
2021/05/06 12:14:30;;;;;;;4.78;1.67;;;12.20;70.20;;;;;;2336064;53;20937;-65
2021/05/06 12:16:56;;;;;;;3.30;1.50;;;12.10;70.30;;;;;;2369384;53;20934;-69
2021/05/06 12:19:23;;;;;;;5.45;2.12;;;12.10;70.60;;;;;;2475122;52;20935;-68
2021/05/06 12:21:55;;;;;;;2.80;1.33;;;12.10;70.80;;;;;;2374710;53;20937;-67
2021/05/06 12:24:48;;;;;;;4.07;1.50;;;12.10;71.10;;;;;;2351094;53;21275;-69
2021/05/06 12:27:24;;;;;;;3.25;1.40;;;12.10;71.10;;;;;;2372044;53;20990;-70
2021/05/06 12:30:14;;;;;;;3.47;1.65;;;12.10;71.60;;;;;;2374264;53;20946;-66
2021/05/06 12:32:43;;;;;;;4.03;1.40;;;12.20;71.90;;;;;;2551266;53;20999;-68
2021/05/06 12:35:10;;;;;;;3.60;1.48;;;12.20;72.10;;;;;;2596346;52;20980;-67
2021/05/06 12:37:41;;;;;;;3.67;1.62;;;12.20;72.20;;;;;;2352340;54;21037;-68
2021/05/06 12:40:12;;;;;;;5.20;1.48;;;12.30;72.50;;;;;;2596364;52;21048;-67
2021/05/06 12:42:39;;;;;;;4.22;1.62;;;12.30;72.50;;;;;;2373919;53;20990;-66
2021/05/06 12:47:44;;;;;;;4.10;1.67;;;12.30;73.20;;;;;;2371957;53;21886;-70
2021/05/06 12:50:21;;;;;;;4.28;1.50;;;12.40;71.70;;;;;;2352622;53;21494;-68
2021/05/06 12:52:55;;;;;;;5.07;1.62;;;12.40;71.90;;;;;;2624495;52;20993;-66
2021/05/06 12:55:23;;;;;;;5.15;1.95;;;12.40;71.80;;;;;;2358506;53;21001;-68
2021/05/06 12:58:24;;;;;;;2.70;1.48;;;12.40;71.70;;;;;;2351712;53;20921;-70
2021/05/06 13:01:12;;;;;;;3.08;1.30;;;12.40;71.80;;;;;;2366149;53;21031;-68
2021/05/06 13:03:42;;;;;;;3.95;1.35;;;12.40;71.80;;;;;;2345795;53;21434;-67
2021/05/06 13:06:13;;;;;;;4.35;1.87;;;12.40;72.20;;;;;;2395869;53;21028;-68
2021/05/06 13:08:45;;;;;;;4.22;1.90;;;12.40;72.30;;;;;;2366126;53;20934;-68
2021/05/06 13:11:13;;;;;;;3.35;1.42;;;12.40;72.00;;;;;;2622943;52;20954;-67
2021/05/06 13:13:47;;;;;;;3.55;1.30;;;12.40;72.00;;;;;;2549984;52;21499;-67
2021/05/06 13:16:34;;;;;;;3.35;1.33;;;12.50;71.90;;;;;;2353194;53;20931;-68
2021/05/06 13:19:01;;;;;;;5.22;0.95;;;12.40;71.90;;;;;;2370061;53;20974;-68
2021/05/06 13:21:27;;;;;;;4.10;1.30;;;12.40;72.00;;;;;;2370144;53;21474;-67
2021/05/06 13:23:54;;;;;;;2.87;1.27;;;12.40;72.10;;;;;;2621415;52;20994;-67
2021/05/06 13:26:37;;;;;;;3.83;1.45;;;12.40;72.10;;;;;;2369876;53;21021;-69
2021/05/06 13:29:16;;;;;;;2.37;1.12;;;12.40;71.90;;;;;;2414520;52;20996;-68
2021/05/06 13:31:43;;;;;;;4.18;1.20;;;12.40;72.10;;;;;;2369959;53;21427;-67
2021/05/06 13:34:20;;;;;;;4.03;1.12;;;12.40;72.30;;;;;;2622097;52;21042;-68
2021/05/06 13:37:02;;;;;;;2.35;1.10;;;12.40;72.50;;;;;;2349611;54;20934;-67
2021/05/06 13:39:31;;;;;;;2.55;1.05;;;12.40;72.60;;;;;;2369895;53;21399;-66
2021/05/06 13:41:57;;;;;;;4.68;1.10;;;12.40;72.80;;;;;;2368378;53;21001;-70
2021/05/06 13:44:25;;;;;;;4.50;1.50;;;12.50;73.10;;;;;;2613004;52;22059;-69
2021/05/06 13:46:56;;;;;;;2.78;1.05;;;12.50;73.30;;;;;;2332872;54;20936;-67
2021/05/06 13:49:26;;;;;;;3.75;1.23;;;12.50;73.30;;;;;;2347946;54;20940;-67
2021/05/06 13:51:54;;;;;;;3.15;1.20;;;12.50;73.10;;;;;;2369353;53;21510;-70
2021/05/06 13:54:21;;;;;;;3.12;1.48;;;12.50;73.20;;;;;;2621919;52;20945;-67
2021/05/06 13:56:47;;;;;;;3.30;1.30;;;12.60;73.30;;;;;;2340496;54;20967;-67
2021/05/06 13:59:14;;;;;;;3.25;1.12;;;12.60;73.20;;;;;;2605563;52;20902;-69
2021/05/06 14:01:40;;;;;;;2.65;1.17;;;12.60;73.20;;;;;;2349169;53;20995;-66
2021/05/06 14:04:08;;;;;;;2.72;1.05;;;12.60;73.20;;;;;;2358451;53;20963;-66
2021/05/06 14:06:35;;;;;;;2.97;1.10;;;12.60;73.50;;;;;;2345356;53;21401;-66
2021/05/06 14:09:01;;;;;;;2.70;1.00;;;12.60;73.60;;;;;;2363737;53;20951;-68
2021/05/06 14:11:27;;;;;;;2.33;0.95;;;12.60;73.60;;;;;;2350560;53;20934;-67
2021/05/06 14:14:00;;;;;;;2.58;1.15;;;12.70;73.80;;;;;;2605053;52;21058;-68
2021/05/06 14:16:28;;;;;;;3.25;1.00;;;12.70;74.00;;;;;;2607145;52;21053;-67
2021/05/06 14:18:54;;;;;;;2.78;1.12;;;12.70;74.20;;;;;;2368545;53;20945;-69
2021/05/06 14:21:22;;;;;;;2.50;1.10;;;12.80;74.20;;;;;;2369139;53;21494;-67
2021/05/06 14:23:48;;;;;;;2.22;0.80;;;12.80;74.10;;;;;;2369039;53;20907;-66
2021/05/06 14:26:15;;;;;;;2.22;0.95;;;12.80;74.30;;;;;;2368526;53;20953;-66
2021/05/06 14:28:42;;;;;;;2.47;1.20;;;12.90;74.50;;;;;;2329337;54;21451;-69
2021/05/06 14:31:10;;;;;;;3.58;1.25;;;12.90;74.50;;;;;;2369067;53;20918;-69
2021/05/06 14:33:37;;;;;;;2.15;1.00;;;13.00;74.60;;;;;;2369538;53;20946;-66
2021/05/06 14:36:07;;;;;;;3.25;1.10;;;13.00;74.40;;;;;;2368964;53;21018;-66
2021/05/06 14:38:34;;;;;;;2.47;1.17;;;13.10;74.30;;;;;;2382966;52;20995;-68
2021/05/06 14:41:01;;;;;;;3.47;1.58;;;13.10;74.30;;;;;;2356292;53;21071;-67
2021/05/06 14:43:27;;;;;;;3.00;1.33;;;13.10;74.30;;;;;;2351747;53;21675;-66
2021/05/06 14:45:54;;;;;;;2.67;1.20;;;13.20;74.40;;;;;;2593310;52;21005;-65
2021/05/06 14:48:24;;;;;;;2.65;1.08;;;13.20;74.10;;;;;;2369967;53;20969;-66
2021/05/06 14:50:51;;;;;;;2.42;1.00;;;13.20;73.80;;;;;;2369299;53;20993;-66
2021/05/06 14:53:17;;;;;;;3.42;1.48;;;13.20;73.80;;;;;;2371362;53;20922;-67
2021/05/06 14:55:44;;;;;;;3.70;1.00;;;13.20;73.80;;;;;;2348656;53;20957;-67
2021/05/06 14:58:10;;;;;;;2.65;1.10;;;13.20;73.80;;;;;;2358596;53;21037;-68
2021/05/06 15:00:37;;;;;;;3.55;1.12;;;13.20;73.80;;;;;;2496697;52;20911;-67
2021/05/06 15:03:04;;;;;;;2.53;0.98;;;13.20;73.70;;;;;;2462008;52;21849;-67
2021/05/06 15:05:30;;;;;;;1.73;0.73;;;13.20;73.70;;;;;;2350313;53;20995;-67
2021/05/06 15:08:02;;;;;;;2.05;0.80;;;13.20;73.80;;;;;;2361251;53;20958;-69
2021/05/06 15:10:32;;;;;;;1.95;0.90;;;13.20;73.80;;;;;;2369431;53;22453;-70
2021/05/06 15:12:59;;;;;;;2.00;0.80;;;13.30;73.80;;;;;;2369073;53;20954;-68
2021/05/06 15:15:25;;;;;;;2.33;0.93;;;13.30;74.50;;;;;;2358998;53;20947;-68
2021/05/06 15:17:53;;;;;;;2.28;0.90;;;13.30;73.80;;;;;;2360388;53;20929;-70
2021/05/06 15:20:23;;;;;;;4.12;0.80;;;13.20;73.80;;;;;;2369746;53;20985;-67
2021/05/06 15:22:49;;;;;;;1.87;0.80;;;13.20;74.00;;;;;;2368993;53;20922;-69
2021/05/06 15:25:18;;;;;;;2.30;1.00;;;13.20;74.10;;;;;;2369102;53;20933;-68
2021/05/06 15:27:45;;;;;;;2.03;0.88;;;13.20;74.10;;;;;;2360317;53;21294;-68
2021/05/06 15:30:14;;;;;;;2.00;0.70;;;13.20;74.20;;;;;;2358167;53;21005;-67
2021/05/06 15:32:41;;;;;;;3.33;0.90;;;13.30;74.30;;;;;;2622405;52;21009;-67
2021/05/06 15:35:09;;;;;;;1.95;0.70;;;13.30;74.50;;;;;;2361942;53;21511;-70
2021/05/06 15:37:36;;;;;;;2.42;0.88;;;13.30;74.60;;;;;;2567931;52;20941;-69
2021/05/06 15:40:05;;;;;;;1.85;0.90;;;13.30;74.80;;;;;;2369456;53;21021;-66
2021/05/06 15:42:31;;;;;;;2.25;1.10;;;13.30;75.00;;;;;;2591632;52;21002;-67
2021/05/06 15:44:57;;;;;;;4.75;2.30;;;13.40;75.40;;;;;;2357917;53;20962;-69
2021/05/06 15:47:24;;;;;;;4.37;2.28;;;13.40;75.90;;;;;;2344798;54;21523;-68
2021/05/06 15:49:50;;;;;;;4.90;2.00;;;13.40;76.30;;;;;;2368710;53;21751;-69
2021/05/06 15:52:18;;;;;;;2.85;1.23;;;13.50;76.40;;;;;;2369152;53;21022;-69
2021/05/06 15:54:45;;;;;;;2.33;1.15;;;13.60;76.80;;;;;;2370288;53;21446;-66
2021/05/06 15:57:11;;;;;;;2.95;1.20;;;13.60;77.00;;;;;;2369829;53;20937;-67
2021/05/06 15:59:38;;;;;;;2.75;1.20;;;13.70;77.10;;;;;;2369823;52;20930;-69
2021/05/06 16:02:08;;;;;;;2.72;1.20;;;13.70;77.10;;;;;;2369167;53;20942;-70
2021/05/06 16:04:37;;;;;;;3.62;1.30;;;13.80;77.00;;;;;;2369269;53;20998;-66
2021/05/06 16:07:03;;;;;;;3.25;1.33;;;13.80;77.00;;;;;;2356890;54;20951;-66
2021/05/06 16:09:30;;;;;;;2.10;1.10;;;13.90;76.90;;;;;;2355466;53;21111;-66
2021/05/06 16:11:57;;;;;;;3.15;1.10;;;13.90;76.80;;;;;;2356071;53;20986;-66
2021/05/06 16:14:24;;;;;;;3.35;1.37;;;14.00;76.80;;;;;;2348124;53;20934;-69
2021/05/06 16:16:50;;;;;;;2.30;1.20;;;14.00;76.90;;;;;;2369066;53;20938;-67
2021/05/06 16:19:17;;;;;;;3.12;1.30;;;14.10;76.60;;;;;;2369701;53;20918;-67